createdAt,value
2019-03-28T00:07:51.962Z,23.63
2019-03-28T00:27:56.323Z,25.62
2019-03-28T00:37:58.887Z,31.43
2019-03-28T00:48:01.462Z,25.17
2019-03-28T00:58:04.196Z,23.03
2019-03-28T01:08:06.744Z,23.57
2019-03-28T01:18:09.284Z,19.47
2019-03-28T01:28:11.803Z,22.97
2019-03-28T01:38:14.700Z,28.33
2019-03-28T01:48:17.324Z,33.85
2019-03-28T01:58:19.971Z,24.03
2019-03-28T02:08:24.891Z,23.23
2019-03-28T02:18:27.568Z,23.80
2019-03-28T02:38:32.350Z,21.95
2019-03-28T02:48:35.409Z,23.83
2019-03-28T02:58:38.486Z,26.48
2019-03-28T03:18:42.716Z,19.30
2019-03-28T03:28:45.508Z,20.63
2019-03-28T03:38:48.273Z,20.88
2019-03-28T03:48:51.125Z,23.87
2019-03-28T03:58:54.995Z,18.75
2019-03-28T04:08:57.693Z,17.73
2019-03-28T04:19:00.619Z,17.50
2019-03-28T04:29:03.320Z,21.02
2019-03-28T04:39:05.902Z,21.23
2019-03-28T04:49:08.504Z,20.27
2019-03-28T04:59:11.019Z,20.40
2019-03-28T05:09:13.751Z,22.30
2019-03-28T05:19:16.409Z,22.40
2019-03-28T05:29:19.368Z,27.27
2019-03-28T05:39:22.010Z,27.45
2019-03-28T05:49:24.832Z,30.93
2019-03-28T05:59:27.873Z,31.17
2019-03-28T06:19:33.792Z,27.27
2019-03-28T06:29:36.447Z,31.52
2019-03-28T06:39:39.091Z,35.38
2019-03-28T06:49:42.240Z,41.37
2019-03-28T07:09:47.116Z,31.87
2019-03-28T07:19:49.718Z,48.77
2019-03-28T07:29:53.104Z,39.30
2019-03-28T07:39:56.150Z,36.42
2019-03-28T07:49:58.868Z,39.05
2019-03-28T08:00:05.207Z,36.03
2019-03-28T08:10:08.731Z,40.17
2019-03-28T08:20:12.302Z,45.58
2019-03-28T08:30:19.468Z,33.90
2019-03-28T08:40:39.902Z,37.13
2019-03-28T08:50:42.594Z,39.10
2019-03-28T09:00:52.125Z,51.70
2019-03-28T09:10:49.426Z,36.45
2019-03-28T09:20:53.463Z,41.63
2019-03-28T09:30:57.909Z,39.23
2019-03-28T09:41:00.391Z,43.13
2019-03-28T09:51:02.955Z,30.10
2019-03-28T10:01:06.816Z,32.63
2019-03-28T10:11:09.356Z,28.30
2019-03-28T10:21:12.416Z,25.15
2019-03-28T10:31:34.157Z,23.15
2019-03-28T10:41:39.882Z,20.12
2019-03-28T10:51:41.714Z,31.10
2019-03-28T11:01:50.038Z,18.90
2019-03-28T11:11:49.169Z,30.12
2019-03-28T11:21:51.683Z,33.78
2019-03-28T11:31:54.269Z,23.35
2019-03-28T11:42:00.267Z,32.45
2019-03-28T11:52:01.136Z,31.65
2019-03-28T12:02:19.227Z,27.60
2019-03-28T12:12:08.635Z,25.30
2019-03-28T12:22:11.254Z,27.95
2019-03-28T12:52:19.026Z,19.65
2019-03-28T13:02:29.930Z,20.10
2019-03-28T13:12:25.967Z,18.98
2019-03-28T13:22:29.005Z,23.90
2019-03-28T13:32:41.636Z,21.45
2019-03-28T13:42:35.842Z,30.20
2019-03-28T14:02:40.053Z,22.82
2019-03-28T14:12:42.567Z,27.90
2019-03-28T14:22:45.695Z,28.83
2019-03-28T14:32:53.596Z,26.07
2019-03-28T14:42:52.689Z,31.48
2019-03-28T14:52:55.509Z,27.00
2019-03-28T15:13:00.209Z,30.30
2019-03-28T15:33:04.431Z,20.92
2019-03-28T15:43:06.968Z,24.85
2019-03-28T15:53:09.707Z,25.17
2019-03-28T16:03:12.441Z,24.07
2019-03-28T16:13:15.061Z,33.67
2019-03-28T16:23:17.580Z,25.47
2019-03-28T16:33:20.098Z,19.70
2019-03-28T16:43:25.661Z,27.10
2019-03-28T16:53:27.275Z,24.57
2019-03-28T17:03:30.010Z,30.17
2019-03-28T17:13:32.506Z,49.20
2019-03-28T17:23:35.583Z,46.35
2019-03-28T17:33:38.490Z,53.03
2019-03-28T17:43:41.946Z,77.62
2019-03-28T17:53:45.568Z,55.48
2019-03-28T18:03:48.498Z,54.40
2019-03-28T18:13:51.251Z,58.13
2019-03-28T18:23:54.227Z,60.08
2019-03-28T18:43:59.991Z,55.25
2019-03-28T18:54:02.634Z,62.98
2019-03-28T19:04:06.611Z,82.43
2019-03-28T19:14:09.379Z,62.30
2019-03-28T19:24:12.007Z,57.25
2019-03-28T19:34:14.575Z,55.58
2019-03-28T19:44:17.175Z,58.00
2019-03-28T19:54:20.611Z,63.67
2019-03-28T20:04:23.728Z,51.42
2019-03-28T20:14:26.461Z,62.20
2019-03-28T20:24:29.511Z,62.90
2019-03-28T20:44:33.791Z,61.68
2019-03-28T20:54:36.640Z,62.67
2019-03-28T21:04:39.360Z,62.85
2019-03-28T21:14:42.031Z,58.35
2019-03-28T21:24:44.558Z,59.25
2019-03-28T21:34:47.185Z,59.80
2019-03-28T21:44:51.244Z,59.93
2019-03-28T21:54:53.782Z,67.92
2019-03-28T22:04:56.513Z,58.50
2019-03-28T22:14:59.343Z,64.77
2019-03-28T22:25:02.741Z,62.85
2019-03-28T22:35:05.806Z,64.30
2019-03-28T22:55:10.926Z,66.12
2019-03-28T23:05:15.216Z,65.40
2019-03-28T23:15:18.042Z,66.77
2019-03-28T23:25:20.510Z,64.58
2019-03-28T23:35:23.026Z,64.67
2019-03-28T23:45:25.992Z,58.80
2019-03-28T23:55:29.004Z,54.58
